createdAt,value
2023-03-26T00:00:27.382Z,76.58
2023-03-26T00:06:16.238Z,76.78
2023-03-26T00:11:40.093Z,77.31
2023-03-26T00:17:04.630Z,77.58
2023-03-26T00:22:29.868Z,77.73
2023-03-26T00:27:55.040Z,77.64
2023-03-26T00:33:19.882Z,77.85
2023-03-26T00:38:45.188Z,77.94
2023-03-26T00:44:10.269Z,77.65
2023-03-26T00:49:34.969Z,78.04
2023-03-26T00:55:00.495Z,77.50
2023-03-26T01:00:35.183Z,77.47
2023-03-26T01:06:14.327Z,77.76
2023-03-26T01:11:38.444Z,78.02
2023-03-26T01:17:04.844Z,78.17
2023-03-26T01:22:29.176Z,78.07
2023-03-26T01:27:57.213Z,78.47
2023-03-26T01:33:47.249Z,80.11
2023-03-26T01:39:20.640Z,80.78
2023-03-26T01:45:09.473Z,82.00
2023-03-26T01:50:33.614Z,83.90
2023-03-26T01:56:12.996Z,85.45
2023-03-26T02:01:45.379Z,86.86
2023-03-26T02:07:21.181Z,87.40
2023-03-26T02:12:45.594Z,87.55
2023-03-26T02:18:13.674Z,87.93
2023-03-26T02:23:38.788Z,87.84
2023-03-26T02:29:03.184Z,88.04
2023-03-26T02:34:28.618Z,87.76
2023-03-26T02:39:53.492Z,87.82
2023-03-26T02:45:23.874Z,87.42
2023-03-26T02:51:10.825Z,86.82
2023-03-26T02:56:40.688Z,86.14
2023-03-26T03:02:24.811Z,85.50
2023-03-26T03:07:50.384Z,84.93
2023-03-26T03:13:15.676Z,84.60
2023-03-26T03:18:40.478Z,83.94
2023-03-26T03:24:05.620Z,83.05
2023-03-26T03:29:36.562Z,82.69
2023-03-26T03:35:20.886Z,82.83
2023-03-26T03:40:48.604Z,82.79
2023-03-26T03:46:14.172Z,82.98
2023-03-26T03:51:44.229Z,83.25
2023-03-26T03:57:19.178Z,83.18
2023-03-26T04:02:59.104Z,83.16
2023-03-26T04:08:24.995Z,83.17
2023-03-26T04:13:52.759Z,83.61
2023-03-26T04:19:33.139Z,83.83
2023-03-26T04:24:57.684Z,84.02
2023-03-26T04:30:28.369Z,84.37
2023-03-26T04:36:03.372Z,84.45
2023-03-26T04:41:30.594Z,84.05
2023-03-26T04:47:01.384Z,83.89
2023-03-26T04:52:39.744Z,83.49
2023-03-26T05:03:23.588Z,83.28
2023-03-26T05:08:47.608Z,83.03
2023-03-26T05:14:25.081Z,83.13
2023-03-26T05:19:52.626Z,82.89
2023-03-26T05:25:17.957Z,82.42
2023-03-26T05:30:43.926Z,82.04
2023-03-26T05:36:13.541Z,81.90
2023-03-26T05:41:39.704Z,82.56
2023-03-26T05:47:04.181Z,83.22
2023-03-26T05:52:29.929Z,83.25
2023-03-26T05:58:15.825Z,82.81
2023-03-26T06:03:49.180Z,82.60
2023-03-26T06:09:17.313Z,82.06
2023-03-26T06:14:46.130Z,81.50
2023-03-26T06:20:16.157Z,81.47
2023-03-26T06:25:46.157Z,80.96
2023-03-26T06:31:22.447Z,80.68
2023-03-26T06:37:09.443Z,80.26
2023-03-26T06:43:07.500Z,79.60
2023-03-26T06:54:25.584Z,79.42
2023-03-26T06:59:53.375Z,78.82
2023-03-26T07:05:36.305Z,78.76
2023-03-26T07:11:21.075Z,78.34
2023-03-26T07:17:03.708Z,77.38
2023-03-26T07:22:52.349Z,77.20
2023-03-26T07:28:42.442Z,75.51
2023-03-26T07:35:08.831Z,75.52
2023-03-26T07:41:23.809Z,75.68
2023-03-26T07:47:27.196Z,74.94
2023-03-26T07:53:11.001Z,74.70
2023-03-26T07:59:10.960Z,74.02
2023-03-26T08:05:00.733Z,73.25
2023-03-26T08:11:08.414Z,72.97
2023-03-26T08:16:51.695Z,72.07
2023-03-26T08:22:26.557Z,70.90
2023-03-26T08:28:35.382Z,70.79
2023-03-26T08:34:00.834Z,70.51
2023-03-26T08:39:25.786Z,71.22
2023-03-26T08:45:03.122Z,70.15
2023-03-26T08:50:39.423Z,69.19
2023-03-26T08:56:37.721Z,69.43
2023-03-26T09:02:21.837Z,68.28
2023-03-26T09:07:51.895Z,67.09
2023-03-26T09:13:57.532Z,66.53
2023-03-26T09:19:34.393Z,66.44
2023-03-26T09:25:09.165Z,66.91
2023-03-26T09:31:02.548Z,67.19
2023-03-26T09:36:34.295Z,66.21
2023-03-26T09:42:18.349Z,64.58
2023-03-26T09:47:54.768Z,64.80
2023-03-26T09:53:25.224Z,66.87
2023-03-26T09:59:33.675Z,72.24
2023-03-26T10:05:05.371Z,73.66
2023-03-26T10:10:38.258Z,73.19
2023-03-26T10:16:44.970Z,72.22
2023-03-26T10:22:16.638Z,71.44
2023-03-26T10:28:11.272Z,69.47
2023-03-26T10:33:52.769Z,68.40
2023-03-26T10:39:37.580Z,67.47
2023-03-26T10:45:25.383Z,66.91
2023-03-26T10:51:17.198Z,66.18
2023-03-26T10:56:51.058Z,64.18
2023-03-26T11:02:30.804Z,62.87
2023-03-26T11:08:15.721Z,61.59
2023-03-26T11:13:53.967Z,58.39
2023-03-26T11:19:42.813Z,58.25
2023-03-26T11:25:28.142Z,57.32
2023-03-26T11:31:02.496Z,57.58
2023-03-26T11:36:38.330Z,55.41
2023-03-26T11:42:14.711Z,55.84
2023-03-26T11:47:55.680Z,56.97
2023-03-26T11:53:22.746Z,56.51
2023-03-26T11:59:02.963Z,55.30
2023-03-26T12:04:40.859Z,53.58
2023-03-26T12:10:20.942Z,52.14
2023-03-26T12:15:45.215Z,50.77
2023-03-26T12:21:20.031Z,49.33
2023-03-26T12:26:49.325Z,50.31
2023-03-26T12:32:15.326Z,48.67
2023-03-26T12:37:43.728Z,48.27
2023-03-26T12:44:46.872Z,48.39
2023-03-26T12:49:24.039Z,46.70
2023-03-26T12:55:16.247Z,47.81
2023-03-26T13:00:57.888Z,48.68
2023-03-26T13:07:00.419Z,47.98
2023-03-26T13:12:53.655Z,48.25
2023-03-26T13:18:30.216Z,49.53
2023-03-26T13:24:18.833Z,49.72
2023-03-26T13:30:02.226Z,49.64
2023-03-26T13:35:37.022Z,49.03
2023-03-26T13:41:06.958Z,46.73
2023-03-26T13:46:43.695Z,47.89
2023-03-26T13:52:15.916Z,48.12
2023-03-26T13:57:46.316Z,48.57
2023-03-26T14:03:21.092Z,48.85
2023-03-26T14:08:55.185Z,48.38
2023-03-26T14:14:44.565Z,48.44
2023-03-26T14:20:32.918Z,49.00
2023-03-26T14:26:27.163Z,48.71
2023-03-26T14:32:04.732Z,49.00
2023-03-26T14:37:29.050Z,49.65
2023-03-26T14:43:38.812Z,49.62
2023-03-26T14:49:24.360Z,50.76
2023-03-26T14:54:52.341Z,51.24
2023-03-26T15:00:45.289Z,51.20
2023-03-26T15:06:47.469Z,52.01
2023-03-26T15:12:24.919Z,53.11
2023-03-26T15:17:57.592Z,52.88
2023-03-26T15:23:30.997Z,53.22
2023-03-26T15:28:59.537Z,54.00
2023-03-26T15:35:03.047Z,54.61
2023-03-26T15:40:43.485Z,54.88
2023-03-26T15:46:10.602Z,54.88
2023-03-26T15:51:59.123Z,55.53
2023-03-26T15:57:41.268Z,55.69
2023-03-26T16:03:11.265Z,55.83
2023-03-26T16:09:08.471Z,55.68
2023-03-26T16:14:35.824Z,56.20
2023-03-26T16:20:21.092Z,56.70
2023-03-26T16:26:19.974Z,57.32
2023-03-26T16:32:06.057Z,57.70
2023-03-26T16:37:36.700Z,57.84
2023-03-26T16:43:24.848Z,58.29
2023-03-26T16:48:58.335Z,58.76
2023-03-26T16:54:36.748Z,59.17
2023-03-26T17:00:29.527Z,59.58
2023-03-26T17:06:02.518Z,60.48
2023-03-26T17:11:47.694Z,61.77
2023-03-26T17:17:41.290Z,63.73
2023-03-26T17:23:09.781Z,65.25
2023-03-26T17:29:08.315Z,66.46
2023-03-26T17:34:38.820Z,67.31
2023-03-26T17:40:06.662Z,67.88
2023-03-26T17:45:35.589Z,68.59
2023-03-26T17:51:34.493Z,69.09
2023-03-26T17:57:05.556Z,69.02
2023-03-26T18:02:39.706Z,69.20
2023-03-26T18:08:25.261Z,69.98
2023-03-26T18:14:24.602Z,70.55
2023-03-26T18:20:02.860Z,71.17
2023-03-26T18:25:32.704Z,71.69
2023-03-26T18:31:09.142Z,71.88
2023-03-26T18:36:33.526Z,72.29
2023-03-26T18:41:58.798Z,72.11
2023-03-26T18:47:23.366Z,72.77
2023-03-26T18:52:52.874Z,72.87
2023-03-26T18:58:28.293Z,72.92
2023-03-26T19:03:54.656Z,73.02
2023-03-26T19:09:31.135Z,73.35
2023-03-26T19:15:13.804Z,73.62
2023-03-26T19:20:45.711Z,73.81
2023-03-26T19:26:11.865Z,74.44
2023-03-26T19:31:40.636Z,74.81
2023-03-26T19:37:30.126Z,75.17
2023-03-26T19:42:54.556Z,75.95
2023-03-26T19:48:45.929Z,76.33
2023-03-26T19:54:16.817Z,76.32
2023-03-26T19:59:41.352Z,76.28
2023-03-26T20:05:10.659Z,76.84
2023-03-26T20:10:35.360Z,76.98
2023-03-26T20:16:13.566Z,77.32
2023-03-26T20:21:38.527Z,77.92
2023-03-26T20:27:02.717Z,78.46
2023-03-26T20:32:27.625Z,78.55
2023-03-26T20:37:53.649Z,78.84
2023-03-26T20:43:18.832Z,79.02
2023-03-26T20:48:43.359Z,79.50
2023-03-26T20:54:08.380Z,80.13
2023-03-26T20:59:32.798Z,80.87
2023-03-26T21:04:57.639Z,81.85
2023-03-26T21:10:23.200Z,82.39
2023-03-26T21:15:47.877Z,82.73
2023-03-26T21:21:56.477Z,83.04
2023-03-26T21:27:20.370Z,83.29
2023-03-26T21:32:45.733Z,83.96
2023-03-26T21:38:10.301Z,83.88
2023-03-26T21:43:34.854Z,83.99
2023-03-26T21:48:59.780Z,84.64
2023-03-26T21:54:29.087Z,84.70
2023-03-26T22:00:07.825Z,84.74
2023-03-26T22:05:38.576Z,84.76
2023-03-26T22:11:02.554Z,84.80
2023-03-26T22:16:26.997Z,84.78
2023-03-26T22:21:56.358Z,84.26
2023-03-26T22:27:24.932Z,84.01
2023-03-26T22:32:53.787Z,84.01
2023-03-26T22:38:18.272Z,83.89
2023-03-26T22:43:42.873Z,83.90
2023-03-26T22:49:08.128Z,83.97
2023-03-26T22:54:33.591Z,84.48
2023-03-26T23:00:12.913Z,84.49
2023-03-26T23:05:36.938Z,84.43
2023-03-26T23:11:02.293Z,84.49
2023-03-26T23:16:26.882Z,84.73
2023-03-26T23:21:51.295Z,84.69
2023-03-26T23:27:15.744Z,84.63
2023-03-26T23:32:47.494Z,84.37
2023-03-26T23:38:13.425Z,84.33
2023-03-26T23:43:39.950Z,84.05
2023-03-26T23:49:18.402Z,83.65
2023-03-26T23:54:43.464Z,83.51
